Terminal Aerodrome Forecast
Issued by NWS Indianapolis, IN

Home | Current Version | Previous Version | Text Only | Print | Product List | Glossary On
Versions: 1 2 3 4 5 6 7 8 9 10 11 12 13 14 15 16 17 18 19 20 21 22 23 24 25 26 27
000
FTUS43 KIND 251100
TAFIND
TAF
KIND 251125Z 2512/2618 23005KT P6SM SCT035 BKN150
      TEMPO 2512/2513 BKN030
     FM251500 27008KT P6SM SCT030 BKN250
     FM251800 27011KT P6SM SCT100
     FM252300 30006KT P6SM SCT100
     FM260500 32005KT P6SM SCT250=

USA.gov is the U.S. government's official web portal to all federal, state and local government web resources and services.